Aviation Digital Data Service (ADDS)

Output produced by METARs form (0819 UTC 18 February 2019)
found at http://www.aviationweather.gov/metar/data/
 
METAR text: KTMK 180815Z AUTO 00000KT 3/4SM BR VV005 M01/M02 A3038 RMK AO2
Conditions at: KTMK (TILLAMOOK , OR, US) observed 0815 UTC 18 February 2019
Temperature: -1.0°C (30°F)
Dewpoint: -2.0°C (28°F) [RH = 93%]
Pressure (altimeter): 30.38 inches Hg (1028.9 mb)
Winds: calm
Visibility: 0.75 miles (1.21 km)
Ceiling: indefinite ceiling with vertical visibility of 500 feet AGL
Clouds: obscured sky
Weather: BR  (mist)

METAR text: KTMK 180755Z AUTO 00000KT 1 1/2SM BR SCT001 M01/M01 A3037 RMK AO2
Conditions at: KTMK (TILLAMOOK , OR, US) observed 0755 UTC 18 February 2019
Temperature: -1.0°C (30°F)
Dewpoint: -1.0°C (30°F) [RH = 100%]
Pressure (altimeter): 30.37 inches Hg (1028.5 mb)
Winds: calm
Visibility: 1.50 miles (2.41 km)
Ceiling: at least 12,000 feet AGL
Clouds: scattered clouds at 100 feet AGL
Weather: BR  (mist)

METAR text: KTMK 180735Z AUTO 00000KT 1 3/4SM BR VV007 M01/M01 A3036 RMK AO2
Conditions at: KTMK (TILLAMOOK , OR, US) observed 0735 UTC 18 February 2019
Temperature: -1.0°C (30°F)
Dewpoint: -1.0°C (30°F) [RH = 100%]
Pressure (altimeter): 30.36 inches Hg (1028.2 mb)
Winds: calm
Visibility: 1.75 miles (2.82 km)
Ceiling: indefinite ceiling with vertical visibility of 700 feet AGL
Clouds: obscured sky
Weather: BR  (mist)

METAR text: KTMK 180715Z AUTO 00000KT 1 1/2SM BR SCT003 M01/M01 A3036 RMK AO2
Conditions at: KTMK (TILLAMOOK , OR, US) observed 0715 UTC 18 February 2019
Temperature: -1.0°C (30°F)
Dewpoint: -1.0°C (30°F) [RH = 100%]
Pressure (altimeter): 30.36 inches Hg (1028.2 mb)
Winds: calm
Visibility: 1.50 miles (2.41 km)
Ceiling: at least 12,000 feet AGL
Clouds: scattered clouds at 300 feet AGL
Weather: BR  (mist)

METAR text: KTMK 180655Z AUTO 18003KT 1 3/4SM BR SCT003 00/M01 A3036 RMK AO2
Conditions at: KTMK (TILLAMOOK , OR, US) observed 0655 UTC 18 February 2019
Temperature: 0.0°C (32°F)
Dewpoint: -1.0°C (30°F) [RH = 93%]
Pressure (altimeter): 30.36 inches Hg (1028.2 mb)
Winds: from the S (180 degrees) at 3 MPH (3 knots; 1.5 m/s)
Visibility: 1.75 miles (2.82 km)
Ceiling: at least 12,000 feet AGL
Clouds: scattered clouds at 300 feet AGL
Weather: BR  (mist)

METAR text: KTMK 180635Z AUTO 00000KT 5SM BR SCT003 00/M01 A3036 RMK AO2
Conditions at: KTMK (TILLAMOOK , OR, US) observed 0635 UTC 18 February 2019
Temperature: 0.0°C (32°F)
Dewpoint: -1.0°C (30°F) [RH = 93%]
Pressure (altimeter): 30.36 inches Hg (1028.2 mb)
Winds: calm
Visibility: 5 miles ( 8 km)
Ceiling: at least 12,000 feet AGL
Clouds: scattered clouds at 300 feet AGL
Weather: BR  (mist)

METAR text: KTMK 180615Z AUTO 00000KT 7SM SCT001 00/00 A3035 RMK AO2
Conditions at: KTMK (TILLAMOOK , OR, US) observed 0615 UTC 18 February 2019
Temperature: 0.0°C (32°F)
Dewpoint: 0.0°C (32°F) [RH = 100%]
Pressure (altimeter): 30.35 inches Hg (1027.9 mb)
Winds: calm
Visibility: 7 miles (11 km)
Ceiling: at least 12,000 feet AGL
Clouds: scattered clouds at 100 feet AGL
Weather: automated observation with no human augmentation;
there may or may not be significant weather present at this time

METAR text: KTMK 180555Z AUTO 00000KT 1/4SM FG OVC001 00/00 A3035 RMK AO2
Conditions at: KTMK (TILLAMOOK , OR, US) observed 0555 UTC 18 February 2019
Temperature: 0.0°C (32°F)
Dewpoint: 0.0°C (32°F) [RH = 100%]
Pressure (altimeter): 30.35 inches Hg (1027.9 mb)
Winds: calm
Visibility: 0.25 miles (0.40 km)
Ceiling: 100 feet AGL
Clouds: overcast cloud deck at 100 feet AGL
Weather: FG  (fog)

METAR text: KTMK 180535Z AUTO 16003KT 2SM BR CLR 00/00 A3035 RMK AO2
Conditions at: KTMK (TILLAMOOK , OR, US) observed 0535 UTC 18 February 2019
Temperature: 0.0°C (32°F)
Dewpoint: 0.0°C (32°F) [RH = 100%]
Pressure (altimeter): 30.35 inches Hg (1027.9 mb)
Winds: from the SSE (160 degrees) at 3 MPH (3 knots; 1.5 m/s)
Visibility: 2.00 miles (3.22 km)
Ceiling: at least 12,000 feet AGL
Clouds: sky clear below 12,000 feet AGL
Weather: BR  (mist)

METAR text: KTMK 180515Z AUTO 00000KT 10SM CLR 01/00 A3034 RMK AO2
Conditions at: KTMK (TILLAMOOK , OR, US) observed 0515 UTC 18 February 2019
Temperature: 1.0°C (34°F)
Dewpoint: 0.0°C (32°F) [RH = 93%]
Pressure (altimeter): 30.34 inches Hg (1027.5 mb)
Winds: calm
Visibility: 10 or more miles (16+ km)
Ceiling: at least 12,000 feet AGL
Clouds: sky clear below 12,000 feet AGL
Weather: automated observation with no human augmentation;
there may or may not be significant weather present at this time

METAR text: KTMK 180455Z AUTO 00000KT 10SM CLR 01/00 A3033 RMK AO2
Conditions at: KTMK (TILLAMOOK , OR, US) observed 0455 UTC 18 February 2019
Temperature: 1.0°C (34°F)
Dewpoint: 0.0°C (32°F) [RH = 93%]
Pressure (altimeter): 30.33 inches Hg (1027.2 mb)
Winds: calm
Visibility: 10 or more miles (16+ km)
Ceiling: at least 12,000 feet AGL
Clouds: sky clear below 12,000 feet AGL
Weather: automated observation with no human augmentation;
there may or may not be significant weather present at this time

METAR text: KTMK 180435Z AUTO 00000KT 5SM BR CLR 01/01 A3033 RMK AO2
Conditions at: KTMK (TILLAMOOK , OR, US) observed 0435 UTC 18 February 2019
Temperature: 1.0°C (34°F)
Dewpoint: 1.0°C (34°F) [RH = 100%]
Pressure (altimeter): 30.33 inches Hg (1027.2 mb)
Winds: calm
Visibility: 5 miles ( 8 km)
Ceiling: at least 12,000 feet AGL
Clouds: sky clear below 12,000 feet AGL
Weather: BR  (mist)

METAR text: KTMK 180415Z AUTO 00000KT 5SM BR CLR 01/00 A3032 RMK AO2
Conditions at: KTMK (TILLAMOOK , OR, US) observed 0415 UTC 18 February 2019
Temperature: 1.0°C (34°F)
Dewpoint: 0.0°C (32°F) [RH = 93%]
Pressure (altimeter): 30.32 inches Hg (1026.8 mb)
Winds: calm
Visibility: 5 miles ( 8 km)
Ceiling: at least 12,000 feet AGL
Clouds: sky clear below 12,000 feet AGL
Weather: BR  (mist)

METAR text: KTMK 180355Z AUTO 20003KT 10SM CLR 01/01 A3031 RMK AO2
Conditions at: KTMK (TILLAMOOK , OR, US) observed 0355 UTC 18 February 2019
Temperature: 1.0°C (34°F)
Dewpoint: 1.0°C (34°F) [RH = 100%]
Pressure (altimeter): 30.31 inches Hg (1026.5 mb)
Winds: from the SSW (200 degrees) at 3 MPH (3 knots; 1.5 m/s)
Visibility: 10 or more miles (16+ km)
Ceiling: at least 12,000 feet AGL
Clouds: sky clear below 12,000 feet AGL
Weather: automated observation with no human augmentation;
there may or may not be significant weather present at this time

METAR text: KTMK 180335Z AUTO 00000KT 10SM CLR 02/01 A3030 RMK AO2
Conditions at: KTMK (TILLAMOOK , OR, US) observed 0335 UTC 18 February 2019
Temperature: 2.0°C (36°F)
Dewpoint: 1.0°C (34°F) [RH = 93%]
Pressure (altimeter): 30.30 inches Hg (1026.2 mb)
Winds: calm
Visibility: 10 or more miles (16+ km)
Ceiling: at least 12,000 feet AGL
Clouds: sky clear below 12,000 feet AGL
Weather: automated observation with no human augmentation;
there may or may not be significant weather present at this time

METAR text: KTMK 180315Z AUTO 00000KT 10SM CLR 02/01 A3030 RMK AO2
Conditions at: KTMK (TILLAMOOK , OR, US) observed 0315 UTC 18 February 2019
Temperature: 2.0°C (36°F)
Dewpoint: 1.0°C (34°F) [RH = 93%]
Pressure (altimeter): 30.30 inches Hg (1026.2 mb)
Winds: calm
Visibility: 10 or more miles (16+ km)
Ceiling: at least 12,000 feet AGL
Clouds: sky clear below 12,000 feet AGL
Weather: automated observation with no human augmentation;
there may or may not be significant weather present at this time

METAR text: KTMK 180255Z AUTO 00000KT 10SM CLR 02/01 A3030 RMK AO2
Conditions at: KTMK (TILLAMOOK , OR, US) observed 0255 UTC 18 February 2019
Temperature: 2.0°C (36°F)
Dewpoint: 1.0°C (34°F) [RH = 93%]
Pressure (altimeter): 30.30 inches Hg (1026.2 mb)
Winds: calm
Visibility: 10 or more miles (16+ km)
Ceiling: at least 12,000 feet AGL
Clouds: sky clear below 12,000 feet AGL
Weather: automated observation with no human augmentation;
there may or may not be significant weather present at this time

METAR text: KTMK 180235Z AUTO 00000KT 10SM CLR 03/01 A3029 RMK AO2
Conditions at: KTMK (TILLAMOOK , OR, US) observed 0235 UTC 18 February 2019
Temperature: 3.0°C (37°F)
Dewpoint: 1.0°C (34°F) [RH = 87%]
Pressure (altimeter): 30.29 inches Hg (1025.8 mb)
Winds: calm
Visibility: 10 or more miles (16+ km)
Ceiling: at least 12,000 feet AGL
Clouds: sky clear below 12,000 feet AGL
Weather: automated observation with no human augmentation;
there may or may not be significant weather present at this time

METAR text: KTMK 180215Z AUTO 00000KT 10SM CLR 03/01 A3028 RMK AO2
Conditions at: KTMK (TILLAMOOK , OR, US) observed 0215 UTC 18 February 2019
Temperature: 3.0°C (37°F)
Dewpoint: 1.0°C (34°F) [RH = 87%]
Pressure (altimeter): 30.28 inches Hg (1025.5 mb)
Winds: calm
Visibility: 10 or more miles (16+ km)
Ceiling: at least 12,000 feet AGL
Clouds: sky clear below 12,000 feet AGL
Weather: automated observation with no human augmentation;
there may or may not be significant weather present at this time

METAR text: KTMK 180155Z AUTO 00000KT 10SM CLR 05/01 A3027 RMK AO2
Conditions at: KTMK (TILLAMOOK , OR, US) observed 0155 UTC 18 February 2019
Temperature: 5.0°C (41°F)
Dewpoint: 1.0°C (34°F) [RH = 75%]
Pressure (altimeter): 30.27 inches Hg (1025.1 mb)
Winds: calm
Visibility: 10 or more miles (16+ km)
Ceiling: at least 12,000 feet AGL
Clouds: sky clear below 12,000 feet AGL
Weather: automated observation with no human augmentation;
there may or may not be significant weather present at this time

METAR text: KTMK 180135Z AUTO 27003KT 10SM CLR 06/01 A3026 RMK AO2
Conditions at: KTMK (TILLAMOOK , OR, US) observed 0135 UTC 18 February 2019
Temperature: 6.0°C (43°F)
Dewpoint: 1.0°C (34°F) [RH = 70%]
Pressure (altimeter): 30.26 inches Hg (1024.8 mb)
Winds: from the W (270 degrees) at 3 MPH (3 knots; 1.5 m/s)
Visibility: 10 or more miles (16+ km)
Ceiling: at least 12,000 feet AGL
Clouds: sky clear below 12,000 feet AGL
Weather: automated observation with no human augmentation;
there may or may not be significant weather present at this time

METAR text: KTMK 180115Z AUTO 27006KT 10SM SCT042 06/02 A3025 RMK AO2
Conditions at: KTMK (TILLAMOOK , OR, US) observed 0115 UTC 18 February 2019
Temperature: 6.0°C (43°F)
Dewpoint: 2.0°C (36°F) [RH = 75%]
Pressure (altimeter): 30.25 inches Hg (1024.5 mb)
Winds: from the W (270 degrees) at 7 MPH (6 knots; 3.1 m/s)
Visibility: 10 or more miles (16+ km)
Ceiling: at least 12,000 feet AGL
Clouds: scattered clouds at 4200 feet AGL
Weather: automated observation with no human augmentation;
there may or may not be significant weather present at this time

METAR text: KTMK 180055Z AUTO 29007KT 10SM BKN042 07/02 A3025 RMK AO2
Conditions at: KTMK (TILLAMOOK , OR, US) observed 0055 UTC 18 February 2019
Temperature: 7.0°C (45°F)
Dewpoint: 2.0°C (36°F) [RH = 70%]
Pressure (altimeter): 30.25 inches Hg (1024.5 mb)
Winds: from the WNW (290 degrees) at 8 MPH (7 knots; 3.6 m/s)
Visibility: 10 or more miles (16+ km)
Ceiling: 4200 feet AGL
Clouds: broken clouds at 4200 feet AGL
Weather: automated observation with no human augmentation;
there may or may not be significant weather present at this time

METAR text: KTMK 180035Z AUTO 29009KT 10SM SCT044 07/02 A3025 RMK AO2
Conditions at: KTMK (TILLAMOOK , OR, US) observed 0035 UTC 18 February 2019
Temperature: 7.0°C (45°F)
Dewpoint: 2.0°C (36°F) [RH = 70%]
Pressure (altimeter): 30.25 inches Hg (1024.5 mb)
Winds: from the WNW (290 degrees) at 10 MPH (9 knots; 4.6 m/s)
Visibility: 10 or more miles (16+ km)
Ceiling: at least 12,000 feet AGL
Clouds: scattered clouds at 4400 feet AGL
Weather: automated observation with no human augmentation;
there may or may not be significant weather present at this time

METAR text: KTMK 180015Z AUTO 29005KT 10SM SCT044 07/02 A3024 RMK AO2
Conditions at: KTMK (TILLAMOOK , OR, US) observed 0015 UTC 18 February 2019
Temperature: 7.0°C (45°F)
Dewpoint: 2.0°C (36°F) [RH = 70%]
Pressure (altimeter): 30.24 inches Hg (1024.1 mb)
Winds: from the WNW (290 degrees) at 6 MPH (5 knots; 2.6 m/s)
Visibility: 10 or more miles (16+ km)
Ceiling: at least 12,000 feet AGL
Clouds: scattered clouds at 4400 feet AGL
Weather: automated observation with no human augmentation;
there may or may not be significant weather present at this time

METAR text: KTMK 172355Z AUTO 29006KT 10SM CLR 08/02 A3023 RMK AO2
Conditions at: KTMK (TILLAMOOK , OR, US) observed 2355 UTC 17 February 2019
Temperature: 8.0°C (46°F)
Dewpoint: 2.0°C (36°F) [RH = 66%]
Pressure (altimeter): 30.23 inches Hg (1023.8 mb)
Winds: from the WNW (290 degrees) at 7 MPH (6 knots; 3.1 m/s)
Visibility: 10 or more miles (16+ km)
Ceiling: at least 12,000 feet AGL
Clouds: sky clear below 12,000 feet AGL
Weather: automated observation with no human augmentation;
there may or may not be significant weather present at this time

METAR text: KTMK 172335Z AUTO 27006KT 10SM SCT047 08/02 A3023 RMK AO2
Conditions at: KTMK (TILLAMOOK , OR, US) observed 2335 UTC 17 February 2019
Temperature: 8.0°C (46°F)
Dewpoint: 2.0°C (36°F) [RH = 66%]
Pressure (altimeter): 30.23 inches Hg (1023.8 mb)
Winds: from the W (270 degrees) at 7 MPH (6 knots; 3.1 m/s)
Visibility: 10 or more miles (16+ km)
Ceiling: at least 12,000 feet AGL
Clouds: scattered clouds at 4700 feet AGL
Weather: automated observation with no human augmentation;
there may or may not be significant weather present at this time

METAR text: KTMK 172315Z AUTO 31008KT 10SM SCT047 08/02 A3023 RMK AO2
Conditions at: KTMK (TILLAMOOK , OR, US) observed 2315 UTC 17 February 2019
Temperature: 8.0°C (46°F)
Dewpoint: 2.0°C (36°F) [RH = 66%]
Pressure (altimeter): 30.23 inches Hg (1023.8 mb)
Winds: from the NW (310 degrees) at 9 MPH (8 knots; 4.1 m/s)
Visibility: 10 or more miles (16+ km)
Ceiling: at least 12,000 feet AGL
Clouds: scattered clouds at 4700 feet AGL
Weather: automated observation with no human augmentation;
there may or may not be significant weather present at this time

METAR text: KTMK 172255Z AUTO 30007KT 10SM SCT044 08/01 A3022 RMK AO2
Conditions at: KTMK (TILLAMOOK , OR, US) observed 2255 UTC 17 February 2019
Temperature: 8.0°C (46°F)
Dewpoint: 1.0°C (34°F) [RH = 61%]
Pressure (altimeter): 30.22 inches Hg (1023.5 mb)
Winds: from the WNW (300 degrees) at 8 MPH (7 knots; 3.6 m/s)
Visibility: 10 or more miles (16+ km)
Ceiling: at least 12,000 feet AGL
Clouds: scattered clouds at 4400 feet AGL
Weather: automated observation with no human augmentation;
there may or may not be significant weather present at this time

METAR text: KTMK 172235Z AUTO 31009KT 10SM SCT032 BKN044 07/01 A3022 RMK AO2
Conditions at: KTMK (TILLAMOOK , OR, US) observed 2235 UTC 17 February 2019
Temperature: 7.0°C (45°F)
Dewpoint: 1.0°C (34°F) [RH = 66%]
Pressure (altimeter): 30.22 inches Hg (1023.5 mb)
Winds: from the NW (310 degrees) at 10 MPH (9 knots; 4.6 m/s)
Visibility: 10 or more miles (16+ km)
Ceiling: 4400 feet AGL
Clouds: scattered clouds at 3200 feet AGL
broken clouds at 4400 feet AGL
Weather: automated observation with no human augmentation;
there may or may not be significant weather present at this time

METAR text: KTMK 172215Z AUTO 31008KT 10SM SCT030 SCT044 08/02 A3021 RMK AO2
Conditions at: KTMK (TILLAMOOK , OR, US) observed 2215 UTC 17 February 2019
Temperature: 8.0°C (46°F)
Dewpoint: 2.0°C (36°F) [RH = 66%]
Pressure (altimeter): 30.21 inches Hg (1023.1 mb)
Winds: from the NW (310 degrees) at 9 MPH (8 knots; 4.1 m/s)
Visibility: 10 or more miles (16+ km)
Ceiling: at least 12,000 feet AGL
Clouds: scattered clouds at 3000 feet AGL
scattered clouds at 4400 feet AGL
Weather: automated observation with no human augmentation;
there may or may not be significant weather present at this time

METAR text: KTMK 172155Z AUTO 31004KT 10SM SCT026 08/00 A3021 RMK AO2
Conditions at: KTMK (TILLAMOOK , OR, US) observed 2155 UTC 17 February 2019
Temperature: 8.0°C (46°F)
Dewpoint: 0.0°C (32°F) [RH = 57%]
Pressure (altimeter): 30.21 inches Hg (1023.1 mb)
Winds: from the NW (310 degrees) at 5 MPH (4 knots; 2.1 m/s)
Visibility: 10 or more miles (16+ km)
Ceiling: at least 12,000 feet AGL
Clouds: scattered clouds at 2600 feet AGL
Weather: automated observation with no human augmentation;
there may or may not be significant weather present at this time

METAR text: KTMK 172135Z AUTO 00000KT 10SM CLR 07/01 A3020 RMK AO2
Conditions at: KTMK (TILLAMOOK , OR, US) observed 2135 UTC 17 February 2019
Temperature: 7.0°C (45°F)
Dewpoint: 1.0°C (34°F) [RH = 66%]
Pressure (altimeter): 30.20 inches Hg (1022.8 mb)
Winds: calm
Visibility: 10 or more miles (16+ km)
Ceiling: at least 12,000 feet AGL
Clouds: sky clear below 12,000 feet AGL
Weather: automated observation with no human augmentation;
there may or may not be significant weather present at this time

METAR text: KTMK 172115Z AUTO 00000KT 10SM CLR 07/01 A3020 RMK AO2
Conditions at: KTMK (TILLAMOOK , OR, US) observed 2115 UTC 17 February 2019
Temperature: 7.0°C (45°F)
Dewpoint: 1.0°C (34°F) [RH = 66%]
Pressure (altimeter): 30.20 inches Hg (1022.8 mb)
Winds: calm
Visibility: 10 or more miles (16+ km)
Ceiling: at least 12,000 feet AGL
Clouds: sky clear below 12,000 feet AGL
Weather: automated observation with no human augmentation;
there may or may not be significant weather present at this time

METAR text: KTMK 172055Z AUTO 00000KT 10SM CLR 07/01 A3020 RMK AO2
Conditions at: KTMK (TILLAMOOK , OR, US) observed 2055 UTC 17 February 2019
Temperature: 7.0°C (45°F)
Dewpoint: 1.0°C (34°F) [RH = 66%]
Pressure (altimeter): 30.20 inches Hg (1022.8 mb)
Winds: calm
Visibility: 10 or more miles (16+ km)
Ceiling: at least 12,000 feet AGL
Clouds: sky clear below 12,000 feet AGL
Weather: automated observation with no human augmentation;
there may or may not be significant weather present at this time

METAR text: KTMK 172035Z AUTO 00000KT 10SM CLR 07/02 A3020 RMK AO2
Conditions at: KTMK (TILLAMOOK , OR, US) observed 2035 UTC 17 February 2019
Temperature: 7.0°C (45°F)
Dewpoint: 2.0°C (36°F) [RH = 70%]
Pressure (altimeter): 30.20 inches Hg (1022.8 mb)
Winds: calm
Visibility: 10 or more miles (16+ km)
Ceiling: at least 12,000 feet AGL
Clouds: sky clear below 12,000 feet AGL
Weather: automated observation with no human augmentation;
there may or may not be significant weather present at this time

METAR text: KTMK 172015Z AUTO 02004KT 10SM CLR 06/02 A3020 RMK AO2
Conditions at: KTMK (TILLAMOOK , OR, US) observed 2015 UTC 17 February 2019
Temperature: 6.0°C (43°F)
Dewpoint: 2.0°C (36°F) [RH = 75%]
Pressure (altimeter): 30.20 inches Hg (1022.8 mb)
Winds: from the NNE (20 degrees) at 5 MPH (4 knots; 2.1 m/s)
Visibility: 10 or more miles (16+ km)
Ceiling: at least 12,000 feet AGL
Clouds: sky clear below 12,000 feet AGL
Weather: automated observation with no human augmentation;
there may or may not be significant weather present at this time

METAR text: KTMK 171955Z AUTO 00000KT 10SM CLR 06/02 A3020 RMK AO2
Conditions at: KTMK (TILLAMOOK , OR, US) observed 1955 UTC 17 February 2019
Temperature: 6.0°C (43°F)
Dewpoint: 2.0°C (36°F) [RH = 75%]
Pressure (altimeter): 30.20 inches Hg (1022.8 mb)
Winds: calm
Visibility: 10 or more miles (16+ km)
Ceiling: at least 12,000 feet AGL
Clouds: sky clear below 12,000 feet AGL
Weather: automated observation with no human augmentation;
there may or may not be significant weather present at this time

METAR text: KTMK 171935Z AUTO 00000KT 10SM CLR 05/02 A3019 RMK AO2
Conditions at: KTMK (TILLAMOOK , OR, US) observed 1935 UTC 17 February 2019
Temperature: 5.0°C (41°F)
Dewpoint: 2.0°C (36°F) [RH = 81%]
Pressure (altimeter): 30.19 inches Hg (1022.4 mb)
Winds: calm
Visibility: 10 or more miles (16+ km)
Ceiling: at least 12,000 feet AGL
Clouds: sky clear below 12,000 feet AGL
Weather: automated observation with no human augmentation;
there may or may not be significant weather present at this time

METAR text: KTMK 171915Z AUTO 00000KT 10SM CLR 05/01 A3018 RMK AO2
Conditions at: KTMK (TILLAMOOK , OR, US) observed 1915 UTC 17 February 2019
Temperature: 5.0°C (41°F)
Dewpoint: 1.0°C (34°F) [RH = 75%]
Pressure (altimeter): 30.18 inches Hg (1022.1 mb)
Winds: calm
Visibility: 10 or more miles (16+ km)
Ceiling: at least 12,000 feet AGL
Clouds: sky clear below 12,000 feet AGL
Weather: automated observation with no human augmentation;
there may or may not be significant weather present at this time

METAR text: KTMK 171855Z AUTO 00000KT 10SM CLR 03/02 A3017 RMK AO2
Conditions at: KTMK (TILLAMOOK , OR, US) observed 1855 UTC 17 February 2019
Temperature: 3.0°C (37°F)
Dewpoint: 2.0°C (36°F) [RH = 93%]
Pressure (altimeter): 30.17 inches Hg (1021.8 mb)
Winds: calm
Visibility: 10 or more miles (16+ km)
Ceiling: at least 12,000 feet AGL
Clouds: sky clear below 12,000 feet AGL
Weather: automated observation with no human augmentation;
there may or may not be significant weather present at this time

METAR text: KTMK 171835Z AUTO 14003KT 10SM CLR 03/02 A3017 RMK AO2
Conditions at: KTMK (TILLAMOOK , OR, US) observed 1835 UTC 17 February 2019
Temperature: 3.0°C (37°F)
Dewpoint: 2.0°C (36°F) [RH = 93%]
Pressure (altimeter): 30.17 inches Hg (1021.8 mb)
Winds: from the SE (140 degrees) at 3 MPH (3 knots; 1.5 m/s)
Visibility: 10 or more miles (16+ km)
Ceiling: at least 12,000 feet AGL
Clouds: sky clear below 12,000 feet AGL
Weather: automated observation with no human augmentation;
there may or may not be significant weather present at this time

METAR text: KTMK 171815Z AUTO 13003KT 10SM CLR 02/01 A3016 RMK AO2
Conditions at: KTMK (TILLAMOOK , OR, US) observed 1815 UTC 17 February 2019
Temperature: 2.0°C (36°F)
Dewpoint: 1.0°C (34°F) [RH = 93%]
Pressure (altimeter): 30.16 inches Hg (1021.4 mb)
Winds: from the SE (130 degrees) at 3 MPH (3 knots; 1.5 m/s)
Visibility: 10 or more miles (16+ km)
Ceiling: at least 12,000 feet AGL
Clouds: sky clear below 12,000 feet AGL
Weather: automated observation with no human augmentation;
there may or may not be significant weather present at this time

METAR text: KTMK 171755Z AUTO 00000KT 10SM CLR 02/01 A3015 RMK AO2
Conditions at: KTMK (TILLAMOOK , OR, US) observed 1755 UTC 17 February 2019
Temperature: 2.0°C (36°F)
Dewpoint: 1.0°C (34°F) [RH = 93%]
Pressure (altimeter): 30.15 inches Hg (1021.1 mb)
Winds: calm
Visibility: 10 or more miles (16+ km)
Ceiling: at least 12,000 feet AGL
Clouds: sky clear below 12,000 feet AGL
Weather: automated observation with no human augmentation;
there may or may not be significant weather present at this time

METAR text: KTMK 171735Z AUTO 05005KT 10SM CLR 01/00 A3015 RMK AO2
Conditions at: KTMK (TILLAMOOK , OR, US) observed 1735 UTC 17 February 2019
Temperature: 1.0°C (34°F)
Dewpoint: 0.0°C (32°F) [RH = 93%]
Pressure (altimeter): 30.15 inches Hg (1021.1 mb)
Winds: from the NE (50 degrees) at 6 MPH (5 knots; 2.6 m/s)
Visibility: 10 or more miles (16+ km)
Ceiling: at least 12,000 feet AGL
Clouds: sky clear below 12,000 feet AGL
Weather: automated observation with no human augmentation;
there may or may not be significant weather present at this time

METAR text: KTMK 171715Z AUTO 00000KT 10SM CLR 01/00 A3014 RMK AO2
Conditions at: KTMK (TILLAMOOK , OR, US) observed 1715 UTC 17 February 2019
Temperature: 1.0°C (34°F)
Dewpoint: 0.0°C (32°F) [RH = 93%]
Pressure (altimeter): 30.14 inches Hg (1020.7 mb)
Winds: calm
Visibility: 10 or more miles (16+ km)
Ceiling: at least 12,000 feet AGL
Clouds: sky clear below 12,000 feet AGL
Weather: automated observation with no human augmentation;
there may or may not be significant weather present at this time

METAR text: KTMK 171655Z AUTO 00000KT 10SM CLR 00/00 A3013 RMK AO2
Conditions at: KTMK (TILLAMOOK , OR, US) observed 1655 UTC 17 February 2019
Temperature: 0.0°C (32°F)
Dewpoint: 0.0°C (32°F) [RH = 100%]
Pressure (altimeter): 30.13 inches Hg (1020.4 mb)
Winds: calm
Visibility: 10 or more miles (16+ km)
Ceiling: at least 12,000 feet AGL
Clouds: sky clear below 12,000 feet AGL
Weather: automated observation with no human augmentation;
there may or may not be significant weather present at this time

METAR text: KTMK 171635Z AUTO 00000KT 10SM CLR 00/00 A3012 RMK AO2
Conditions at: KTMK (TILLAMOOK , OR, US) observed 1635 UTC 17 February 2019
Temperature: 0.0°C (32°F)
Dewpoint: 0.0°C (32°F) [RH = 100%]
Pressure (altimeter): 30.12 inches Hg (1020.1 mb)
Winds: calm
Visibility: 10 or more miles (16+ km)
Ceiling: at least 12,000 feet AGL
Clouds: sky clear below 12,000 feet AGL
Weather: automated observation with no human augmentation;
there may or may not be significant weather present at this time

METAR text: KTMK 171615Z AUTO 00000KT 7SM CLR 00/M01 A3011 RMK AO2
Conditions at: KTMK (TILLAMOOK , OR, US) observed 1615 UTC 17 February 2019
Temperature: 0.0°C (32°F)
Dewpoint: -1.0°C (30°F) [RH = 93%]
Pressure (altimeter): 30.11 inches Hg (1019.7 mb)
Winds: calm
Visibility: 7 miles (11 km)
Ceiling: at least 12,000 feet AGL
Clouds: sky clear below 12,000 feet AGL
Weather: automated observation with no human augmentation;
there may or may not be significant weather present at this time

METAR text: KTMK 171555Z AUTO 00000KT 2 1/2SM BR CLR M01/M01 A3010 RMK AO2 VIS 1 1/4V5
Conditions at: KTMK (TILLAMOOK , OR, US) observed 1555 UTC 17 February 2019
Temperature: -1.0°C (30°F)
Dewpoint: -1.0°C (30°F) [RH = 100%]
Pressure (altimeter): 30.10 inches Hg (1019.4 mb)
Winds: calm
Visibility: 2.50 miles (4.02 km)
Ceiling: at least 12,000 feet AGL
Clouds: sky clear below 12,000 feet AGL
Weather: BR  (mist)

METAR text: KTMK 171535Z AUTO 00000KT 3/4SM BR VV005 M01/M01 A3009 RMK AO2
Conditions at: KTMK (TILLAMOOK , OR, US) observed 1535 UTC 17 February 2019
Temperature: -1.0°C (30°F)
Dewpoint: -1.0°C (30°F) [RH = 100%]
Pressure (altimeter): 30.09 inches Hg (1019.0 mb)
Winds: calm
Visibility: 0.75 miles (1.21 km)
Ceiling: indefinite ceiling with vertical visibility of 500 feet AGL
Clouds: obscured sky
Weather: BR  (mist)

METAR text: KTMK 171515Z AUTO 00000KT 1/2SM FZFG BKN001 BKN005 M01/M01 A3009 RMK AO2
Conditions at: KTMK (TILLAMOOK , OR, US) observed 1515 UTC 17 February 2019
Temperature: -1.0°C (30°F)
Dewpoint: -1.0°C (30°F) [RH = 100%]
Pressure (altimeter): 30.09 inches Hg (1019.0 mb)
Winds: calm
Visibility: 0.50 miles (0.80 km)
Ceiling: 100 feet AGL
Clouds: broken clouds at 100 feet AGL
broken clouds at 500 feet AGL
Weather: FZFG  (freezing fog)

METAR text: KTMK 171455Z AUTO 00000KT 1/2SM FZFG OVC001 M01/M01 A3008 RMK AO2
Conditions at: KTMK (TILLAMOOK , OR, US) observed 1455 UTC 17 February 2019
Temperature: -1.0°C (30°F)
Dewpoint: -1.0°C (30°F) [RH = 100%]
Pressure (altimeter): 30.08 inches Hg (1018.7 mb)
Winds: calm
Visibility: 0.50 miles (0.80 km)
Ceiling: 100 feet AGL
Clouds: overcast cloud deck at 100 feet AGL
Weather: FZFG  (freezing fog)

METAR text: KTMK 171435Z AUTO 00000KT 3/4SM BR VV005 00/M01 A3007 RMK AO2
Conditions at: KTMK (TILLAMOOK , OR, US) observed 1435 UTC 17 February 2019
Temperature: 0.0°C (32°F)
Dewpoint: -1.0°C (30°F) [RH = 93%]
Pressure (altimeter): 30.07 inches Hg (1018.4 mb)
Winds: calm
Visibility: 0.75 miles (1.21 km)
Ceiling: indefinite ceiling with vertical visibility of 500 feet AGL
Clouds: obscured sky
Weather: BR  (mist)

METAR text: KTMK 171415Z AUTO 00000KT 1 1/4SM BR VV007 00/M01 A3007 RMK AO2 VIS 1/2V5
Conditions at: KTMK (TILLAMOOK , OR, US) observed 1415 UTC 17 February 2019
Temperature: 0.0°C (32°F)
Dewpoint: -1.0°C (30°F) [RH = 93%]
Pressure (altimeter): 30.07 inches Hg (1018.4 mb)
Winds: calm
Visibility: 1.25 miles (2.01 km)
Ceiling: indefinite ceiling with vertical visibility of 700 feet AGL
Clouds: obscured sky
Weather: BR  (mist)

METAR text: KTMK 171355Z AUTO 00000KT 10SM SCT005 00/00 A3006 RMK AO2
Conditions at: KTMK (TILLAMOOK , OR, US) observed 1355 UTC 17 February 2019
Temperature: 0.0°C (32°F)
Dewpoint: 0.0°C (32°F) [RH = 100%]
Pressure (altimeter): 30.06 inches Hg (1018.0 mb)
Winds: calm
Visibility: 10 or more miles (16+ km)
Ceiling: at least 12,000 feet AGL
Clouds: scattered clouds at 500 feet AGL
Weather: automated observation with no human augmentation;
there may or may not be significant weather present at this time

METAR text: KTMK 171335Z AUTO 00000KT 10SM CLR 00/00 A3006 RMK AO2
Conditions at: KTMK (TILLAMOOK , OR, US) observed 1335 UTC 17 February 2019
Temperature: 0.0°C (32°F)
Dewpoint: 0.0°C (32°F) [RH = 100%]
Pressure (altimeter): 30.06 inches Hg (1018.0 mb)
Winds: calm
Visibility: 10 or more miles (16+ km)
Ceiling: at least 12,000 feet AGL
Clouds: sky clear below 12,000 feet AGL
Weather: automated observation with no human augmentation;
there may or may not be significant weather present at this time

METAR text: KTMK 171315Z AUTO 00000KT 10SM SCT001 SCT038 00/00 A3005 RMK AO2
Conditions at: KTMK (TILLAMOOK , OR, US) observed 1315 UTC 17 February 2019
Temperature: 0.0°C (32°F)
Dewpoint: 0.0°C (32°F) [RH = 100%]
Pressure (altimeter): 30.05 inches Hg (1017.7 mb)
Winds: calm
Visibility: 10 or more miles (16+ km)
Ceiling: at least 12,000 feet AGL
Clouds: scattered clouds at 100 feet AGL
scattered clouds at 3800 feet AGL
Weather: automated observation with no human augmentation;
there may or may not be significant weather present at this time

METAR text: KTMK 171255Z AUTO 00000KT 3/4SM BR BKN001 BKN036 BKN045 00/00 A3004 RMK AO2
Conditions at: KTMK (TILLAMOOK , OR, US) observed 1255 UTC 17 February 2019
Temperature: 0.0°C (32°F)
Dewpoint: 0.0°C (32°F) [RH = 100%]
Pressure (altimeter): 30.04 inches Hg (1017.4 mb)
Winds: calm
Visibility: 0.75 miles (1.21 km)
Ceiling: 100 feet AGL
Clouds: broken clouds at 100 feet AGL
broken clouds at 3600 feet AGL
broken clouds at 4500 feet AGL
Weather: BR  (mist)

METAR text: KTMK 171235Z AUTO 00000KT 1SM BR VV007 00/00 A3004 RMK AO2
Conditions at: KTMK (TILLAMOOK , OR, US) observed 1235 UTC 17 February 2019
Temperature: 0.0°C (32°F)
Dewpoint: 0.0°C (32°F) [RH = 100%]
Pressure (altimeter): 30.04 inches Hg (1017.4 mb)
Winds: calm
Visibility: 1.00 miles (1.61 km)
Ceiling: indefinite ceiling with vertical visibility of 700 feet AGL
Clouds: obscured sky
Weather: BR  (mist)

METAR text: KTMK 171215Z AUTO 00000KT 10SM CLR 00/00 A3003 RMK AO2
Conditions at: KTMK (TILLAMOOK , OR, US) observed 1215 UTC 17 February 2019
Temperature: 0.0°C (32°F)
Dewpoint: 0.0°C (32°F) [RH = 100%]
Pressure (altimeter): 30.03 inches Hg (1017.0 mb)
Winds: calm
Visibility: 10 or more miles (16+ km)
Ceiling: at least 12,000 feet AGL
Clouds: sky clear below 12,000 feet AGL
Weather: automated observation with no human augmentation;
there may or may not be significant weather present at this time

METAR text: KTMK 171155Z AUTO 13003KT 10SM SCT022 01/00 A3003 RMK AO2
Conditions at: KTMK (TILLAMOOK , OR, US) observed 1155 UTC 17 February 2019
Temperature: 1.0°C (34°F)
Dewpoint: 0.0°C (32°F) [RH = 93%]
Pressure (altimeter): 30.03 inches Hg (1017.0 mb)
Winds: from the SE (130 degrees) at 3 MPH (3 knots; 1.5 m/s)
Visibility: 10 or more miles (16+ km)
Ceiling: at least 12,000 feet AGL
Clouds: scattered clouds at 2200 feet AGL
Weather: automated observation with no human augmentation;
there may or may not be significant weather present at this time

METAR text: KTMK 171135Z AUTO 03003KT 10SM BKN016 OVC022 01/00 A3003 RMK AO2
Conditions at: KTMK (TILLAMOOK , OR, US) observed 1135 UTC 17 February 2019
Temperature: 1.0°C (34°F)
Dewpoint: 0.0°C (32°F) [RH = 93%]
Pressure (altimeter): 30.03 inches Hg (1017.0 mb)
Winds: from the NNE (30 degrees) at 3 MPH (3 knots; 1.5 m/s)
Visibility: 10 or more miles (16+ km)
Ceiling: 1600 feet AGL
Clouds: broken clouds at 1600 feet AGL
overcast cloud deck at 2200 feet AGL
Weather: automated observation with no human augmentation;
there may or may not be significant weather present at this time

METAR text: KTMK 171115Z AUTO 05003KT 10SM OVC016 00/00 A3003 RMK AO2
Conditions at: KTMK (TILLAMOOK , OR, US) observed 1115 UTC 17 February 2019
Temperature: 0.0°C (32°F)
Dewpoint: 0.0°C (32°F) [RH = 100%]
Pressure (altimeter): 30.03 inches Hg (1017.0 mb)
Winds: from the NE (50 degrees) at 3 MPH (3 knots; 1.5 m/s)
Visibility: 10 or more miles (16+ km)
Ceiling: 1600 feet AGL
Clouds: overcast cloud deck at 1600 feet AGL
Weather: automated observation with no human augmentation;
there may or may not be significant weather present at this time

METAR text: KTMK 171055Z AUTO 06003KT 10SM BKN018 OVC023 01/00 A3003 RMK AO2
Conditions at: KTMK (TILLAMOOK , OR, US) observed 1055 UTC 17 February 2019
Temperature: 1.0°C (34°F)
Dewpoint: 0.0°C (32°F) [RH = 93%]
Pressure (altimeter): 30.03 inches Hg (1017.0 mb)
Winds: from the ENE (60 degrees) at 3 MPH (3 knots; 1.5 m/s)
Visibility: 10 or more miles (16+ km)
Ceiling: 1800 feet AGL
Clouds: broken clouds at 1800 feet AGL
overcast cloud deck at 2300 feet AGL
Weather: automated observation with no human augmentation;
there may or may not be significant weather present at this time

METAR text: KTMK 171035Z AUTO 14003KT 10SM SCT023 BKN090 OVC110 00/00 A3003 RMK AO2
Conditions at: KTMK (TILLAMOOK , OR, US) observed 1035 UTC 17 February 2019
Temperature: 0.0°C (32°F)
Dewpoint: 0.0°C (32°F) [RH = 100%]
Pressure (altimeter): 30.03 inches Hg (1017.0 mb)
Winds: from the SE (140 degrees) at 3 MPH (3 knots; 1.5 m/s)
Visibility: 10 or more miles (16+ km)
Ceiling: 9000 feet AGL
Clouds: scattered clouds at 2300 feet AGL
broken clouds at 9000 feet AGL
overcast cloud deck at 11000 feet AGL
Weather: automated observation with no human augmentation;
there may or may not be significant weather present at this time

METAR text: KTMK 171015Z AUTO 14003KT 10SM BKN100 00/00 A3003 RMK AO2
Conditions at: KTMK (TILLAMOOK , OR, US) observed 1015 UTC 17 February 2019
Temperature: 0.0°C (32°F)
Dewpoint: 0.0°C (32°F) [RH = 100%]
Pressure (altimeter): 30.03 inches Hg (1017.0 mb)
Winds: from the SE (140 degrees) at 3 MPH (3 knots; 1.5 m/s)
Visibility: 10 or more miles (16+ km)
Ceiling: 10000 feet AGL
Clouds: broken clouds at 10000 feet AGL
Weather: automated observation with no human augmentation;
there may or may not be significant weather present at this time

METAR text: KTMK 170955Z AUTO 00000KT 10SM CLR 01/00 A3002 RMK AO2
Conditions at: KTMK (TILLAMOOK , OR, US) observed 0955 UTC 17 February 2019
Temperature: 1.0°C (34°F)
Dewpoint: 0.0°C (32°F) [RH = 93%]
Pressure (altimeter): 30.02 inches Hg (1016.7 mb)
Winds: calm
Visibility: 10 or more miles (16+ km)
Ceiling: at least 12,000 feet AGL
Clouds: sky clear below 12,000 feet AGL
Weather: automated observation with no human augmentation;
there may or may not be significant weather present at this time

METAR text: KTMK 170935Z AUTO 00000KT 10SM CLR 00/00 A3002 RMK AO2
Conditions at: KTMK (TILLAMOOK , OR, US) observed 0935 UTC 17 February 2019
Temperature: 0.0°C (32°F)
Dewpoint: 0.0°C (32°F) [RH = 100%]
Pressure (altimeter): 30.02 inches Hg (1016.7 mb)
Winds: calm
Visibility: 10 or more miles (16+ km)
Ceiling: at least 12,000 feet AGL
Clouds: sky clear below 12,000 feet AGL
Weather: automated observation with no human augmentation;
there may or may not be significant weather present at this time

METAR text: KTMK 170915Z AUTO 18003KT 10SM UP SCT027 SCT042 SCT050 00/00 A3002 RMK AO2
Conditions at: KTMK (TILLAMOOK , OR, US) observed 0915 UTC 17 February 2019
Temperature: 0.0°C (32°F)
Dewpoint: 0.0°C (32°F) [RH = 100%]
Pressure (altimeter): 30.02 inches Hg (1016.7 mb)
Winds: from the S (180 degrees) at 3 MPH (3 knots; 1.5 m/s)
Visibility: 10 or more miles (16+ km)
Ceiling: at least 12,000 feet AGL
Clouds: scattered clouds at 2700 feet AGL
scattered clouds at 4200 feet AGL
scattered clouds at 5000 feet AGL
Weather: UP  (unknown precipitation)

METAR text: KTMK 170855Z AUTO 00000KT 7SM UP SCT008 BKN028 OVC050 00/00 A3001 RMK AO2 P0005
Conditions at: KTMK (TILLAMOOK , OR, US) observed 0855 UTC 17 February 2019
Temperature: 0.0°C (32°F)
Dewpoint: 0.0°C (32°F) [RH = 100%]
Pressure (altimeter): 30.01 inches Hg (1016.3 mb)
Winds: calm
Visibility: 7 miles (11 km)
Ceiling: 2800 feet AGL
Clouds: scattered clouds at 800 feet AGL
broken clouds at 2800 feet AGL
overcast cloud deck at 5000 feet AGL
Weather: UP  (unknown precipitation)

METAR text: KTMK 170835Z AUTO 06004KT 1 3/4SM -SN SCT003 OVC008 01/00 A3002 RMK AO2 P0005
Conditions at: KTMK (TILLAMOOK , OR, US) observed 0835 UTC 17 February 2019
Temperature: 1.0°C (34°F)
Dewpoint: 0.0°C (32°F) [RH = 93%]
Pressure (altimeter): 30.02 inches Hg (1016.7 mb)
Winds: from the ENE (60 degrees) at 5 MPH (4 knots; 2.1 m/s)
Visibility: 1.75 miles (2.82 km)
Ceiling: 800 feet AGL
Clouds: scattered clouds at 300 feet AGL
overcast cloud deck at 800 feet AGL
Weather: -SN  (light snow)

METAR text: KTMK 170815Z AUTO 04004KT 4SM -SN BKN008 BKN021 OVC034 01/00 A3002 RMK AO2 P0001
Conditions at: KTMK (TILLAMOOK , OR, US) observed 0815 UTC 17 February 2019
Temperature: 1.0°C (34°F)
Dewpoint: 0.0°C (32°F) [RH = 93%]
Pressure (altimeter): 30.02 inches Hg (1016.7 mb)
Winds: from the NE (40 degrees) at 5 MPH (4 knots; 2.1 m/s)
Visibility: 4 miles ( 6 km)
Ceiling: 800 feet AGL
Clouds: broken clouds at 800 feet AGL
broken clouds at 2100 feet AGL
overcast cloud deck at 3400 feet AGL
Weather: -SN  (light snow)

METAR text: KTMK 170755Z AUTO 00000KT 10SM UP BKN036 OVC042 01/00 A3002 RMK AO2
Conditions at: KTMK (TILLAMOOK , OR, US) observed 0755 UTC 17 February 2019
Temperature: 1.0°C (34°F)
Dewpoint: 0.0°C (32°F) [RH = 93%]
Pressure (altimeter): 30.02 inches Hg (1016.7 mb)
Winds: calm
Visibility: 10 or more miles (16+ km)
Ceiling: 3600 feet AGL
Clouds: broken clouds at 3600 feet AGL
overcast cloud deck at 4200 feet AGL
Weather: UP  (unknown precipitation)

METAR text: KTMK 170735Z AUTO 00000KT 10SM SCT035 BKN041 BKN060 01/00 A3001 RMK AO2
Conditions at: KTMK (TILLAMOOK , OR, US) observed 0735 UTC 17 February 2019
Temperature: 1.0°C (34°F)
Dewpoint: 0.0°C (32°F) [RH = 93%]
Pressure (altimeter): 30.01 inches Hg (1016.3 mb)
Winds: calm
Visibility: 10 or more miles (16+ km)
Ceiling: 4100 feet AGL
Clouds: scattered clouds at 3500 feet AGL
broken clouds at 4100 feet AGL
broken clouds at 6000 feet AGL
Weather: automated observation with no human augmentation;
there may or may not be significant weather present at this time

METAR text: KTMK 170715Z AUTO 00000KT 10SM SCT060 01/00 A3001 RMK AO2
Conditions at: KTMK (TILLAMOOK , OR, US) observed 0715 UTC 17 February 2019
Temperature: 1.0°C (34°F)
Dewpoint: 0.0°C (32°F) [RH = 93%]
Pressure (altimeter): 30.01 inches Hg (1016.3 mb)
Winds: calm
Visibility: 10 or more miles (16+ km)
Ceiling: at least 12,000 feet AGL
Clouds: scattered clouds at 6000 feet AGL
Weather: automated observation with no human augmentation;
there may or may not be significant weather present at this time

METAR text: KTMK 170655Z AUTO 00000KT 10SM BKN060 01/00 A3000 RMK AO2
Conditions at: KTMK (TILLAMOOK , OR, US) observed 0655 UTC 17 February 2019
Temperature: 1.0°C (34°F)
Dewpoint: 0.0°C (32°F) [RH = 93%]
Pressure (altimeter): 30.00 inches Hg (1016.0 mb)
Winds: calm
Visibility: 10 or more miles (16+ km)
Ceiling: 6000 feet AGL
Clouds: broken clouds at 6000 feet AGL
Weather: automated observation with no human augmentation;
there may or may not be significant weather present at this time

METAR text: KTMK 170635Z AUTO 00000KT 10SM OVC060 01/01 A3000 RMK AO2
Conditions at: KTMK (TILLAMOOK , OR, US) observed 0635 UTC 17 February 2019
Temperature: 1.0°C (34°F)
Dewpoint: 1.0°C (34°F) [RH = 100%]
Pressure (altimeter): 30.00 inches Hg (1016.0 mb)
Winds: calm
Visibility: 10 or more miles (16+ km)
Ceiling: 6000 feet AGL
Clouds: overcast cloud deck at 6000 feet AGL
Weather: automated observation with no human augmentation;
there may or may not be significant weather present at this time

METAR text: KTMK 170615Z AUTO 10003KT 10SM SCT060 01/01 A3000 RMK AO2
Conditions at: KTMK (TILLAMOOK , OR, US) observed 0615 UTC 17 February 2019
Temperature: 1.0°C (34°F)
Dewpoint: 1.0°C (34°F) [RH = 100%]
Pressure (altimeter): 30.00 inches Hg (1016.0 mb)
Winds: from the E (100 degrees) at 3 MPH (3 knots; 1.5 m/s)
Visibility: 10 or more miles (16+ km)
Ceiling: at least 12,000 feet AGL
Clouds: scattered clouds at 6000 feet AGL
Weather: automated observation with no human augmentation;
there may or may not be significant weather present at this time

METAR text: KTMK 170555Z AUTO 15003KT 7SM UP SCT028 SCT040 BKN048 01/01 A2999 RMK AO2
Conditions at: KTMK (TILLAMOOK , OR, US) observed 0555 UTC 17 February 2019
Temperature: 1.0°C (34°F)
Dewpoint: 1.0°C (34°F) [RH = 100%]
Pressure (altimeter): 29.99 inches Hg (1015.7 mb)
Winds: from the SSE (150 degrees) at 3 MPH (3 knots; 1.5 m/s)
Visibility: 7 miles (11 km)
Ceiling: 4800 feet AGL
Clouds: scattered clouds at 2800 feet AGL
scattered clouds at 4000 feet AGL
broken clouds at 4800 feet AGL
Weather: UP  (unknown precipitation)

METAR text: KTMK 170535Z AUTO 14003KT 10SM SCT026 SCT038 BKN050 01/01 A2999 RMK AO2
Conditions at: KTMK (TILLAMOOK , OR, US) observed 0535 UTC 17 February 2019
Temperature: 1.0°C (34°F)
Dewpoint: 1.0°C (34°F) [RH = 100%]
Pressure (altimeter): 29.99 inches Hg (1015.7 mb)
Winds: from the SE (140 degrees) at 3 MPH (3 knots; 1.5 m/s)
Visibility: 10 or more miles (16+ km)
Ceiling: 5000 feet AGL
Clouds: scattered clouds at 2600 feet AGL
scattered clouds at 3800 feet AGL
broken clouds at 5000 feet AGL
Weather: automated observation with no human augmentation;
there may or may not be significant weather present at this time

METAR text: KTMK 170515Z AUTO 00000KT 10SM UP SCT020 BKN055 OVC075 02/01 A2999 RMK AO2
Conditions at: KTMK (TILLAMOOK , OR, US) observed 0515 UTC 17 February 2019
Temperature: 2.0°C (36°F)
Dewpoint: 1.0°C (34°F) [RH = 93%]
Pressure (altimeter): 29.99 inches Hg (1015.7 mb)
Winds: calm
Visibility: 10 or more miles (16+ km)
Ceiling: 5500 feet AGL
Clouds: scattered clouds at 2000 feet AGL
broken clouds at 5500 feet AGL
overcast cloud deck at 7500 feet AGL
Weather: UP  (unknown precipitation)

METAR text: KTMK 170455Z AUTO 00000KT 10SM UP SCT022 BKN027 OVC055 02/02 A2998 RMK AO2
Conditions at: KTMK (TILLAMOOK , OR, US) observed 0455 UTC 17 February 2019
Temperature: 2.0°C (36°F)
Dewpoint: 2.0°C (36°F) [RH = 100%]
Pressure (altimeter): 29.98 inches Hg (1015.3 mb)
Winds: calm
Visibility: 10 or more miles (16+ km)
Ceiling: 2700 feet AGL
Clouds: scattered clouds at 2200 feet AGL
broken clouds at 2700 feet AGL
overcast cloud deck at 5500 feet AGL
Weather: UP  (unknown precipitation)

METAR text: KTMK 170435Z AUTO 00000KT 10SM UP SCT019 BKN049 OVC055 02/02 A2998 RMK AO2
Conditions at: KTMK (TILLAMOOK , OR, US) observed 0435 UTC 17 February 2019
Temperature: 2.0°C (36°F)
Dewpoint: 2.0°C (36°F) [RH = 100%]
Pressure (altimeter): 29.98 inches Hg (1015.3 mb)
Winds: calm
Visibility: 10 or more miles (16+ km)
Ceiling: 4900 feet AGL
Clouds: scattered clouds at 1900 feet AGL
broken clouds at 4900 feet AGL
overcast cloud deck at 5500 feet AGL
Weather: UP  (unknown precipitation)

METAR text: KTMK 170415Z AUTO 00000KT 10SM UP BKN020 BKN025 OVC055 02/01 A2997 RMK AO2
Conditions at: KTMK (TILLAMOOK , OR, US) observed 0415 UTC 17 February 2019
Temperature: 2.0°C (36°F)
Dewpoint: 1.0°C (34°F) [RH = 93%]
Pressure (altimeter): 29.97 inches Hg (1015.0 mb)
Winds: calm
Visibility: 10 or more miles (16+ km)
Ceiling: 2000 feet AGL
Clouds: broken clouds at 2000 feet AGL
broken clouds at 2500 feet AGL
overcast cloud deck at 5500 feet AGL
Weather: UP  (unknown precipitation)

METAR text: KTMK 170355Z AUTO 00000KT 10SM SCT021 BKN026 OVC070 02/01 A2997 RMK AO2 P0002
Conditions at: KTMK (TILLAMOOK , OR, US) observed 0355 UTC 17 February 2019
Temperature: 2.0°C (36°F)
Dewpoint: 1.0°C (34°F) [RH = 93%]
Pressure (altimeter): 29.97 inches Hg (1015.0 mb)
Winds: calm
Visibility: 10 or more miles (16+ km)
Ceiling: 2600 feet AGL
Clouds: scattered clouds at 2100 feet AGL
broken clouds at 2600 feet AGL
overcast cloud deck at 7000 feet AGL
Weather: automated observation with no human augmentation;
there may or may not be significant weather present at this time

METAR text: KTMK 170335Z AUTO 00000KT 10SM SCT009 BKN028 OVC060 02/01 A2997 RMK AO2 P0002
Conditions at: KTMK (TILLAMOOK , OR, US) observed 0335 UTC 17 February 2019
Temperature: 2.0°C (36°F)
Dewpoint: 1.0°C (34°F) [RH = 93%]
Pressure (altimeter): 29.97 inches Hg (1015.0 mb)
Winds: calm
Visibility: 10 or more miles (16+ km)
Ceiling: 2800 feet AGL
Clouds: scattered clouds at 900 feet AGL
broken clouds at 2800 feet AGL
overcast cloud deck at 6000 feet AGL
Weather: automated observation with no human augmentation;
there may or may not be significant weather present at this time

METAR text: KTMK 170315Z AUTO 13004KT 5SM UP SCT011 BKN033 OVC075 02/01 A2997 RMK AO2 P0002
Conditions at: KTMK (TILLAMOOK , OR, US) observed 0315 UTC 17 February 2019
Temperature: 2.0°C (36°F)
Dewpoint: 1.0°C (34°F) [RH = 93%]
Pressure (altimeter): 29.97 inches Hg (1015.0 mb)
Winds: from the SE (130 degrees) at 5 MPH (4 knots; 2.1 m/s)
Visibility: 5 miles ( 8 km)
Ceiling: 3300 feet AGL
Clouds: scattered clouds at 1100 feet AGL
broken clouds at 3300 feet AGL
overcast cloud deck at 7500 feet AGL
Weather: UP  (unknown precipitation)

METAR text: KTMK 170255Z AUTO 00000KT 10SM SCT008 BKN036 OVC043 02/01 A2997 RMK AO2 P0002
Conditions at: KTMK (TILLAMOOK , OR, US) observed 0255 UTC 17 February 2019
Temperature: 2.0°C (36°F)
Dewpoint: 1.0°C (34°F) [RH = 93%]
Pressure (altimeter): 29.97 inches Hg (1015.0 mb)
Winds: calm
Visibility: 10 or more miles (16+ km)
Ceiling: 3600 feet AGL
Clouds: scattered clouds at 800 feet AGL
broken clouds at 3600 feet AGL
overcast cloud deck at 4300 feet AGL
Weather: automated observation with no human augmentation;
there may or may not be significant weather present at this time

METAR text: KTMK 170235Z AUTO 02004KT 5SM UP SCT008 BKN018 OVC036 02/02 A2998 RMK AO2 P0001
Conditions at: KTMK (TILLAMOOK , OR, US) observed 0235 UTC 17 February 2019
Temperature: 2.0°C (36°F)
Dewpoint: 2.0°C (36°F) [RH = 100%]
Pressure (altimeter): 29.98 inches Hg (1015.3 mb)
Winds: from the NNE (20 degrees) at 5 MPH (4 knots; 2.1 m/s)
Visibility: 5 miles ( 8 km)
Ceiling: 1800 feet AGL
Clouds: scattered clouds at 800 feet AGL
broken clouds at 1800 feet AGL
overcast cloud deck at 3600 feet AGL
Weather: UP  (unknown precipitation)

METAR text: KTMK 170215Z AUTO 08003KT 10SM -RA SCT018 BKN028 OVC060 02/01 A2997 RMK AO2 P0001
Conditions at: KTMK (TILLAMOOK , OR, US) observed 0215 UTC 17 February 2019
Temperature: 2.0°C (36°F)
Dewpoint: 1.0°C (34°F) [RH = 93%]
Pressure (altimeter): 29.97 inches Hg (1015.0 mb)
Winds: from the E (80 degrees) at 3 MPH (3 knots; 1.5 m/s)
Visibility: 10 or more miles (16+ km)
Ceiling: 2800 feet AGL
Clouds: scattered clouds at 1800 feet AGL
broken clouds at 2800 feet AGL
overcast cloud deck at 6000 feet AGL
Weather: -RA  (light rain)

METAR text: KTMK 170155Z AUTO 00000KT 3SM -RA SCT013 BKN023 OVC030 03/01 A2996 RMK AO2 P0004
Conditions at: KTMK (TILLAMOOK , OR, US) observed 0155 UTC 17 February 2019
Temperature: 3.0°C (37°F)
Dewpoint: 1.0°C (34°F) [RH = 87%]
Pressure (altimeter): 29.96 inches Hg (1014.6 mb)
Winds: calm
Visibility: 3 miles ( 5 km)
Ceiling: 2300 feet AGL
Clouds: scattered clouds at 1300 feet AGL
broken clouds at 2300 feet AGL
overcast cloud deck at 3000 feet AGL
Weather: -RA  (light rain)

METAR text: KTMK 170135Z AUTO 21005KT 10SM -RA SCT030 BKN035 OVC050 05/02 A2996 RMK AO2
Conditions at: KTMK (TILLAMOOK , OR, US) observed 0135 UTC 17 February 2019
Temperature: 5.0°C (41°F)
Dewpoint: 2.0°C (36°F) [RH = 81%]
Pressure (altimeter): 29.96 inches Hg (1014.6 mb)
Winds: from the SSW (210 degrees) at 6 MPH (5 knots; 2.6 m/s)
Visibility: 10 or more miles (16+ km)
Ceiling: 3500 feet AGL
Clouds: scattered clouds at 3000 feet AGL
broken clouds at 3500 feet AGL
overcast cloud deck at 5000 feet AGL
Weather: -RA  (light rain)

METAR text: KTMK 170115Z AUTO 18003KT 10SM SCT036 BKN050 OVC060 05/00 A2996 RMK AO2
Conditions at: KTMK (TILLAMOOK , OR, US) observed 0115 UTC 17 February 2019
Temperature: 5.0°C (41°F)
Dewpoint: 0.0°C (32°F) [RH = 70%]
Pressure (altimeter): 29.96 inches Hg (1014.6 mb)
Winds: from the S (180 degrees) at 3 MPH (3 knots; 1.5 m/s)
Visibility: 10 or more miles (16+ km)
Ceiling: 5000 feet AGL
Clouds: scattered clouds at 3600 feet AGL
broken clouds at 5000 feet AGL
overcast cloud deck at 6000 feet AGL
Weather: automated observation with no human augmentation;
there may or may not be significant weather present at this time

METAR text: KTMK 170055Z AUTO 26006KT 10SM SCT023 BKN035 OVC050 05/02 A2996 RMK AO2
Conditions at: KTMK (TILLAMOOK , OR, US) observed 0055 UTC 17 February 2019
Temperature: 5.0°C (41°F)
Dewpoint: 2.0°C (36°F) [RH = 81%]
Pressure (altimeter): 29.96 inches Hg (1014.6 mb)
Winds: from the W (260 degrees) at 7 MPH (6 knots; 3.1 m/s)
Visibility: 10 or more miles (16+ km)
Ceiling: 3500 feet AGL
Clouds: scattered clouds at 2300 feet AGL
broken clouds at 3500 feet AGL
overcast cloud deck at 5000 feet AGL
Weather: automated observation with no human augmentation;
there may or may not be significant weather present at this time

METAR text: KTMK 170035Z AUTO 00000KT 10SM SCT027 BKN034 OVC060 05/02 A2996 RMK AO2
Conditions at: KTMK (TILLAMOOK , OR, US) observed 0035 UTC 17 February 2019
Temperature: 5.0°C (41°F)
Dewpoint: 2.0°C (36°F) [RH = 81%]
Pressure (altimeter): 29.96 inches Hg (1014.6 mb)
Winds: calm
Visibility: 10 or more miles (16+ km)
Ceiling: 3400 feet AGL
Clouds: scattered clouds at 2700 feet AGL
broken clouds at 3400 feet AGL
overcast cloud deck at 6000 feet AGL
Weather: automated observation with no human augmentation;
there may or may not be significant weather present at this time

METAR text: KTMK 170015Z AUTO 00000KT 10SM -DZ BKN025 BKN048 OVC060 05/02 A2996 RMK AO2
Conditions at: KTMK (TILLAMOOK , OR, US) observed 0015 UTC 17 February 2019
Temperature: 5.0°C (41°F)
Dewpoint: 2.0°C (36°F) [RH = 81%]
Pressure (altimeter): 29.96 inches Hg (1014.6 mb)
Winds: calm
Visibility: 10 or more miles (16+ km)
Ceiling: 2500 feet AGL
Clouds: broken clouds at 2500 feet AGL
broken clouds at 4800 feet AGL
overcast cloud deck at 6000 feet AGL
Weather: -DZ  (light drizzle)

METAR text: KTMK 162355Z AUTO 26005KT 4SM -RA SCT027 SCT032 BKN048 05/02 A2996 RMK AO2 P0001
Conditions at: KTMK (TILLAMOOK , OR, US) observed 2355 UTC 16 February 2019
Temperature: 5.0°C (41°F)
Dewpoint: 2.0°C (36°F) [RH = 81%]
Pressure (altimeter): 29.96 inches Hg (1014.6 mb)
Winds: from the W (260 degrees) at 6 MPH (5 knots; 2.6 m/s)
Visibility: 4 miles ( 6 km)
Ceiling: 4800 feet AGL
Clouds: scattered clouds at 2700 feet AGL
scattered clouds at 3200 feet AGL
broken clouds at 4800 feet AGL
Weather: -RA  (light rain)

METAR text: KTMK 162335Z AUTO 00000KT 10SM SCT016 BKN046 OVC065 05/02 A2995 RMK AO2
Conditions at: KTMK (TILLAMOOK , OR, US) observed 2335 UTC 16 February 2019
Temperature: 5.0°C (41°F)
Dewpoint: 2.0°C (36°F) [RH = 81%]
Pressure (altimeter): 29.95 inches Hg (1014.3 mb)
Winds: calm
Visibility: 10 or more miles (16+ km)
Ceiling: 4600 feet AGL
Clouds: scattered clouds at 1600 feet AGL
broken clouds at 4600 feet AGL
overcast cloud deck at 6500 feet AGL
Weather: automated observation with no human augmentation;
there may or may not be significant weather present at this time

METAR text: KTMK 162315Z AUTO 26008G14KT 7SM DZ SCT013 BKN036 OVC060 06/02 A2996 RMK AO2
Conditions at: KTMK (TILLAMOOK , OR, US) observed 2315 UTC 16 February 2019
Temperature: 6.0°C (43°F)
Dewpoint: 2.0°C (36°F) [RH = 75%]
Pressure (altimeter): 29.96 inches Hg (1014.6 mb)
Winds: from the W (260 degrees) at 9 MPH (8 knots; 4.1 m/s)
gusting to 16 MPH (14 knots; 7.2 m/s)
Visibility: 7 miles (11 km)
Ceiling: 3600 feet AGL
Clouds: scattered clouds at 1300 feet AGL
broken clouds at 3600 feet AGL
overcast cloud deck at 6000 feet AGL
Weather: DZ  (moderate drizzle)

METAR text: KTMK 162255Z AUTO 17005KT 10SM BKN034 BKN041 OVC120 07/03 A2995 RMK AO2 P0002
Conditions at: KTMK (TILLAMOOK , OR, US) observed 2255 UTC 16 February 2019
Temperature: 7.0°C (45°F)
Dewpoint: 3.0°C (37°F) [RH = 76%]
Pressure (altimeter): 29.95 inches Hg (1014.3 mb)
Winds: from the S (170 degrees) at 6 MPH (5 knots; 2.6 m/s)
Visibility: 10 or more miles (16+ km)
Ceiling: 3400 feet AGL
Clouds: broken clouds at 3400 feet AGL
broken clouds at 4100 feet AGL
overcast cloud deck at 12000 feet AGL
Weather: automated observation with no human augmentation;
there may or may not be significant weather present at this time

METAR text: KTMK 162235Z AUTO 17005KT 10SM SCT018 SCT034 BKN046 05/02 A2995 RMK AO2 P0002
Conditions at: KTMK (TILLAMOOK , OR, US) observed 2235 UTC 16 February 2019
Temperature: 5.0°C (41°F)
Dewpoint: 2.0°C (36°F) [RH = 81%]
Pressure (altimeter): 29.95 inches Hg (1014.3 mb)
Winds: from the S (170 degrees) at 6 MPH (5 knots; 2.6 m/s)
Visibility: 10 or more miles (16+ km)
Ceiling: 4600 feet AGL
Clouds: scattered clouds at 1800 feet AGL
scattered clouds at 3400 feet AGL
broken clouds at 4600 feet AGL
Weather: automated observation with no human augmentation;
there may or may not be significant weather present at this time

METAR text: KTMK 162215Z AUTO 24006KT 4SM -RA BKN016 BKN022 OVC035 05/02 A2996 RMK AO2 P0001
Conditions at: KTMK (TILLAMOOK , OR, US) observed 2215 UTC 16 February 2019
Temperature: 5.0°C (41°F)
Dewpoint: 2.0°C (36°F) [RH = 81%]
Pressure (altimeter): 29.96 inches Hg (1014.6 mb)
Winds: from the WSW (240 degrees) at 7 MPH (6 knots; 3.1 m/s)
Visibility: 4 miles ( 6 km)
Ceiling: 1600 feet AGL
Clouds: broken clouds at 1600 feet AGL
broken clouds at 2200 feet AGL
overcast cloud deck at 3500 feet AGL
Weather: -RA  (light rain)

METAR text: KTMK 162155Z AUTO 24008G21KT 5SM RA BKN019 BKN031 OVC100 05/02 A2996 RMK AO2 P0001
Conditions at: KTMK (TILLAMOOK , OR, US) observed 2155 UTC 16 February 2019
Temperature: 5.0°C (41°F)
Dewpoint: 2.0°C (36°F) [RH = 81%]
Pressure (altimeter): 29.96 inches Hg (1014.6 mb)
Winds: from the WSW (240 degrees) at 9 MPH (8 knots; 4.1 m/s)
gusting to 24 MPH (21 knots; 10.8 m/s)
Visibility: 5 miles ( 8 km)
Ceiling: 1900 feet AGL
Clouds: broken clouds at 1900 feet AGL
broken clouds at 3100 feet AGL
overcast cloud deck at 10000 feet AGL
Weather: RA  (moderate rain)

METAR text: KTMK 162135Z AUTO 14003KT 10SM SCT032 SCT047 BKN055 06/03 A2995 RMK AO2
Conditions at: KTMK (TILLAMOOK , OR, US) observed 2135 UTC 16 February 2019
Temperature: 6.0°C (43°F)
Dewpoint: 3.0°C (37°F) [RH = 81%]
Pressure (altimeter): 29.95 inches Hg (1014.3 mb)
Winds: from the SE (140 degrees) at 3 MPH (3 knots; 1.5 m/s)
Visibility: 10 or more miles (16+ km)
Ceiling: 5500 feet AGL
Clouds: scattered clouds at 3200 feet AGL
scattered clouds at 4700 feet AGL
broken clouds at 5500 feet AGL
Weather: automated observation with no human augmentation;
there may or may not be significant weather present at this time

METAR text: KTMK 162115Z AUTO 14005KT 10SM -DZ SCT023 BKN043 OVC049 06/03 A2995 RMK AO2
Conditions at: KTMK (TILLAMOOK , OR, US) observed 2115 UTC 16 February 2019
Temperature: 6.0°C (43°F)
Dewpoint: 3.0°C (37°F) [RH = 81%]
Pressure (altimeter): 29.95 inches Hg (1014.3 mb)
Winds: from the SE (140 degrees) at 6 MPH (5 knots; 2.6 m/s)
Visibility: 10 or more miles (16+ km)
Ceiling: 4300 feet AGL
Clouds: scattered clouds at 2300 feet AGL
broken clouds at 4300 feet AGL
overcast cloud deck at 4900 feet AGL
Weather: -DZ  (light drizzle)

METAR text: KTMK 162055Z AUTO 14005KT 10SM SCT023 BKN050 OVC075 05/03 A2995 RMK AO2 P0001
Conditions at: KTMK (TILLAMOOK , OR, US) observed 2055 UTC 16 February 2019
Temperature: 5.0°C (41°F)
Dewpoint: 3.0°C (37°F) [RH = 87%]
Pressure (altimeter): 29.95 inches Hg (1014.3 mb)
Winds: from the SE (140 degrees) at 6 MPH (5 knots; 2.6 m/s)
Visibility: 10 or more miles (16+ km)
Ceiling: 5000 feet AGL
Clouds: scattered clouds at 2300 feet AGL
broken clouds at 5000 feet AGL
overcast cloud deck at 7500 feet AGL
Weather: automated observation with no human augmentation;
there may or may not be significant weather present at this time

METAR text: KTMK 162035Z AUTO 14006KT 10SM SCT026 SCT036 OVC050 05/03 A2995 RMK AO2 P0001
Conditions at: KTMK (TILLAMOOK , OR, US) observed 2035 UTC 16 February 2019
Temperature: 5.0°C (41°F)
Dewpoint: 3.0°C (37°F) [RH = 87%]
Pressure (altimeter): 29.95 inches Hg (1014.3 mb)
Winds: from the SE (140 degrees) at 7 MPH (6 knots; 3.1 m/s)
Visibility: 10 or more miles (16+ km)
Ceiling: 5000 feet AGL
Clouds: scattered clouds at 2600 feet AGL
scattered clouds at 3600 feet AGL
overcast cloud deck at 5000 feet AGL
Weather: automated observation with no human augmentation;
there may or may not be significant weather present at this time